Timeline UpdatesTrip UpdatesNews PostsPvt PostsTravel TipsAdmin PostsConv PostsFollowed PostsChat RequestsBlog PostsPNR Posts

Disclaimer
Search
 
 
Fri Aug 22, 2014 19:17:58 ISTHomeTrainsΣChainsAtlasPNRForumGalleryNewsFAQTripsMembersLoginFeedback
No Recent News for this Train
Other Trains in the News **new
Latest...
Tr.No.17406 Adilabad -Tirupati Express is cancelled o­n 27.04.2014.
Sat Apr 26, 2014 (03:22PM)
⇐ Return Journey: Train# 17405

17406/Krishna Express

Jul 04 2013 (3:43PM)
Change Departure Station:
Change Arrival Station:
Post a Train Travel TipPost a Train Travel Tip **new
Post a Comment/Question/Picture/VideoPost a Comment/Question/Picture/Video
Inaugural Run
Wed Oct 02, 1974
Pantry/Catering
✕ NO Pantry Car
✓ Catering Avbl
Loco/Rake Reversals
SC/Secunderabad Junction (10); MUE/Mudkhed Junction (4);
RSA - Rake Sharing
17405/17406/17409/17410 has RSA.
Rake/Coach Composition
Loco-SLR-GS-D6-D5-D4-D3-D2-D1-S2-S1-C1-B1-GS-GS-GS-GS-GS-SLR
Loco
ADB - SC: KZJ WDG-3A. SC - TPTY: LGD WAP4/7.
News    PNR    Forum    Time-Table    Availability    Fare Chart    Map    Arr/Dep History    Trips    Gallery    ΣChains    X/O    Timeline    
Travel Time: 0h 12m    0 halts    Distance: 10 km    Avg Speed: 50 km/hr
Type: Mail/Express
Zone: SCR/South Central
Departs @ 08:20 (Avg 42m late)
Platform# 2
SMTWTFS
Kazipet Junction/KZJ 
Arrives @ 08:32 (Avg 51m late)
Platform# 1
SMTWTFS
Warangal/WL 

0 halts. 0 intermediate Stations between Kazipet Junction and Warangal

Show ALL intermediate Stations  Show Old Time-Table

#CodeStation NameX/OArrivesAvgDepartsAvgHaltPFDay#KmSpeedElevZoneAddress
1ADBAdilabad (3)  -20:45+111-543.4-248mSCRAdilabad, Telangana
2KNVTKinwat (2)X  21:03+3121:04+331m11-498.122319mSCRKinwat, Maharashtra
3BHBKBodhadi Bujrug  21:44+821:45+91m--1-483.462357mSCRKinwat, Maharashtra
4SHSKSahasrakund  22:14+1322:15+141m--1-453.367402mSCRNanded, Maharashtra
5HEMHimayatnagar  22:29+1622:30+171m--1-437.740398mSCRNanded, Maharashtra
6BOKRBhokar  23:24+223:25+51m11-401.632460mSCRBhokar, Maharashtra
7MUEMudkhed Junction (4)O↵¶00:05-200:15+810m22-380.434378mSCRMudkhed, Maharashtra
8UMRIUmri (1)X  00:49+400:50+81m12-360.965381mSCRHuzur Sahib Nanded, Maharashtra
9DABDharmabad (2)  01:17+1501:18+201m12-331.535354mSCRDegaon, Maharashtra
10BSXBasar (2)X  01:35+1501:37+182m12-321.753358mSCRDist Adilabad, Telangana
11NZBNizamabad (3)  02:10+1902:15+265m12-292.369384mSCRNizamabad, Telangana
12KMCKamareddi (3)O  03:00+3203:01+331m12-240.467528mSCRNizamabad Dist., Telangana
13AKEAkanapet (1)O  03:24+3303:25+331m12-214.792566mSCRMedak District., Telangana
14MZLMirzapalli (1)  03:32+3303:33+341m12-203.943530mSCRMedak Dist., Telangana
15BMOBolarum (3)X  04:55+804:56+91m12-145.227597mSCRSecunderabad, Telangana
16MJFMalkajgiri (3)X  05:19+305:20+41m22-135.18535mSCRSecunderabad, Telangana
17SCSecunderabad Junction (10)X05:45+1406:05+1620m62-131.643539mSCRSecunderabad 500003, Telangana
18MLYMoula Ali (2)X  06:13+2806:14+291m12-125.957520mSCRSecunderabad, Telangana
19CHZCharlapalli (2)  06:21+3306:22+341m22-119.276523mSCRRangareddy Dist., Telangana
20BGBhongir (3)X  06:49+3706:50+381m22-85.397455mSCRNalgonda Dist., Telangana
21RAGRaigir (2)X  06:54+1506:55+151m22-78.873415mSCRNalgonda, Telangana
22ALERAler (2)X  07:08+4307:09+451m22-63.072366mSCRNalgonda Dist., Telangana
23PBPPembarti (2)  07:17+4707:18+481m22-53.441382mSCRWarangal Dist., Telangana
24ZNJangaon (2)  07:26+4507:27+461m22-47.975380mSCRWarangal Dist., Telangana
25RGPRaghunathpalli (2)  07:36+4707:37+481m22-36.684357mSCRWarangal Dist., Telangana
26GNPGhanpur (2)  07:49+5007:50+521m22-19.843344mSCRWarangal Dist. / Enq Ph : 08711 220231, Telangana
27KZJ»Kazipet Junction (3)»X  08:18+3908:20+422m220.051292mSCRWarangal Dist., Telangana
28WL•Warangal (3)•  08:32+5108:34+512m1210.274271mSCRWarangal., Telangana
29NKDNekonda (2)  08:58+5708:59+581m1239.977236mSCRWarangal Dist., Telangana
30KDMKesamudram (2)X  09:11+1:0109:12+1:021m1255.481223mSCRWarangal Dist., Telangana
31MABDMahbubabad (2)  09:23+1:0509:24+1:061m1270.3107200mSCRWarangal Dist., Telangana
32GLAGarla (2)X  09:35-09:36-1m1290.018156mSCRKhammam Dist., Telangana
33DKJDornakal Junction (3)  09:52+5909:54+582m2294.792153mSCRWarangal District, Telangana
34KMTKhammam (2)X  10:09+4810:11+482m12117.788118mSCRKhammam 507001, Telangana
35BKLBona Kalu (2)  10:30+1:0310:31+1:041m12145.68597mSCRKhammam Dist., Telangana
36MDRMadhira (2)  10:43+5810:44+581m12162.58461mSCRKhammam Dist., Telangana
37YPErrupalem (2)X  10:55+1:0310:56+1:031m--2178.01857mSCRKhammam Dist., Telangana
38KIKondapalli (2)O  12:18+2712:20+272m22202.52735mSCRKondapalli, Andhra Pradesh
39BZAVijayawada Junction (10)X  12:55+2013:15+1920m102218.14524mSCRVijayawada 520001, Andhra Pradesh
40PVDPeddavadiapudi (3)  13:31+2713:32+271m--2230.06520mSCRKL University to NH 5, Andhra Pradesh
41DIGDuggirala (3)X  13:41+3113:42+321m--2239.73616mSCRDuggirala, Andhra Pradesh
42TELTenali Junction (5)  13:58+2814:00+292m32249.47716mSCRTel: 08644-227834, Andhra Pradesh
43TSRTsunduru (3)  14:09+3514:10+351m--2260.95712mSCRTsunduru, Andhra Pradesh
44NDONidubrolu (3)  14:21+3614:22+371m--2271.4699mSCRNidubrolu, Andhra Pradesh
45BPPBapatla (3)X  14:40+3314:41+351m--2292.08210mSCRBapatla, Andhra Pradesh
46CLXChirala (4)  14:52+4314:53+441m--2307.0598mSCRChirala, Andhra Pradesh
47VTMVetapalem (3)X  15:01+4915:02+501m--2314.9758mSCRVetapalem, Andhra Pradesh
48CJMChinnaganjam (3)  15:12+5215:13+521m--2327.3779mSCRChinna Ganjam, Andhra Pradesh
49ANBAmmanabrolu (3)X  15:24+5315:25+551m--2341.54316mSCRAmmanabrolu, Andhra Pradesh
50OGLOngole (3)  15:46+4215:48+452m32356.47012mSCROngole, Andhra Pradesh
51TNRTanguturu (3)  16:04+5816:05+591m12375.07210mSCRTanguturu, Andhra Pradesh
52SKMSingarayakonda (2)X  16:13+5316:14+541m22384.69926mSCRSingarayakonda, Andhra Pradesh
53KVZKavali (4)X  16:37+5316:39+542m22422.48221mSCRKavali, Andhra Pradesh
54BTTRBitragunta (2)X  16:51-16:52-1m22438.84515mSCRBitragunta, Andhra Pradesh
55NLRNellore (4)  17:38+1317:40+132m32473.24821mSCRNellore, Andhra Pradesh
56VDEVedayapalem (2)XO  17:49-17:50-1m22480.42427mSCRNellore, Andhra Pradesh
57GDRGudur Junction (3)X  19:08+1619:10+172m32511.66819mSCRGudur, Andhra Pradesh
58VDDVendodu (2)X  19:27+4719:28+491m--2530.88355mSCRNellore, Andhra Pradesh
59VKIVenkatagiri (3)  19:40+5419:41+551m22547.47377mSCRNellore District, Andhra Pradesh
60KHTSri Kalahasti (2)X  20:01+4420:02+441m12571.84268mSCRChittoor District, Andhra Pradesh
61RURenigunta Junction (5)  20:35+3820:40+375m--2595.013113mSCRChittoor District, Andhra Pradesh
62TPTYTirupati Main (5)  21:25+12-12604.9-150mSCRChittoor Distt, Andhra Pradesh
Scroll to Top
Scroll to Bottom